sensor_id;sensor_type;location;lat;lon;timestamp;temperature;humidity
60293;DHT22;52402;52.670;6.750;2022-07-29T00:01:55;15.00;99.90
60293;DHT22;52402;52.670;6.750;2022-07-29T00:04:21;15.10;99.90
60293;DHT22;52402;52.670;6.750;2022-07-29T00:06:47;15.00;99.90
60293;DHT22;52402;52.670;6.750;2022-07-29T00:09:12;15.00;99.90
60293;DHT22;52402;52.670;6.750;2022-07-29T00:11:38;15.00;99.90
60293;DHT22;52402;52.670;6.750;2022-07-29T00:14:04;15.00;99.90
60293;DHT22;52402;52.670;6.750;2022-07-29T00:16:29;15.00;99.90
60293;DHT22;52402;52.670;6.750;2022-07-29T00:18:55;15.00;99.90
60293;DHT22;52402;52.670;6.750;2022-07-29T00:21:21;14.90;99.90
60293;DHT22;52402;52.670;6.750;2022-07-29T00:23:46;15.00;99.90
60293;DHT22;52402;52.670;6.750;2022-07-29T00:26:12;14.90;99.90
60293;DHT22;52402;52.670;6.750;2022-07-29T00:28:37;14.90;99.90
60293;DHT22;52402;52.670;6.750;2022-07-29T00:31:03;14.90;99.90
60293;DHT22;52402;52.670;6.750;2022-07-29T00:33:29;14.90;99.90
60293;DHT22;52402;52.670;6.750;2022-07-29T00:35:54;14.90;99.90
60293;DHT22;52402;52.670;6.750;2022-07-29T00:38:20;14.90;99.90
60293;DHT22;52402;52.670;6.750;2022-07-29T00:40:47;14.90;99.90
60293;DHT22;52402;52.670;6.750;2022-07-29T00:43:13;14.90;99.90
60293;DHT22;52402;52.670;6.750;2022-07-29T00:45:40;15.00;99.90
60293;DHT22;52402;52.670;6.750;2022-07-29T00:48:06;14.90;99.90
60293;DHT22;52402;52.670;6.750;2022-07-29T00:50:34;14.90;99.90
60293;DHT22;52402;52.670;6.750;2022-07-29T00:53:06;14.90;99.90
60293;DHT22;52402;52.670;6.750;2022-07-29T00:55:32;14.90;99.90
60293;DHT22;52402;52.670;6.750;2022-07-29T00:57:58;14.90;99.90
60293;DHT22;52402;52.670;6.750;2022-07-29T01:00:25;14.90;99.90
60293;DHT22;52402;52.670;6.750;2022-07-29T01:02:52;14.90;99.90
60293;DHT22;52402;52.670;6.750;2022-07-29T01:05:20;14.80;99.90
60293;DHT22;52402;52.670;6.750;2022-07-29T01:07:48;14.80;99.90
60293;DHT22;52402;52.670;6.750;2022-07-29T01:10:15;14.80;99.90
60293;DHT22;52402;52.670;6.750;2022-07-29T01:12:42;14.80;99.90
60293;DHT22;52402;52.670;6.750;2022-07-29T01:15:09;14.90;99.90
60293;DHT22;52402;52.670;6.750;2022-07-29T01:17:50;14.80;99.90
60293;DHT22;52402;52.670;6.750;2022-07-29T01:31:35;14.70;99.90
60293;DHT22;52402;52.670;6.750;2022-07-29T01:34:07;14.70;99.90
60293;DHT22;52402;52.670;6.750;2022-07-29T01:36:37;14.70;99.90
60293;DHT22;52402;52.670;6.750;2022-07-29T01:39:10;14.70;99.90
60293;DHT22;52402;52.670;6.750;2022-07-29T01:41:42;14.70;99.90
60293;DHT22;52402;52.670;6.750;2022-07-29T01:44:22;14.70;99.90
60293;DHT22;52402;52.670;6.750;2022-07-29T01:46:58;14.60;99.90
60293;DHT22;52402;52.670;6.750;2022-07-29T01:49:28;14.60;99.90
60293;DHT22;52402;52.670;6.750;2022-07-29T01:51:59;14.70;99.90
60293;DHT22;52402;52.670;6.750;2022-07-29T01:54:43;14.60;99.90
60293;DHT22;52402;52.670;6.750;2022-07-29T01:57:15;14.60;99.90
60293;DHT22;52402;52.670;6.750;2022-07-29T01:59:46;14.60;99.90
60293;DHT22;52402;52.670;6.750;2022-07-29T02:02:15;14.60;99.90
60293;DHT22;52402;52.670;6.750;2022-07-29T02:04:41;14.60;99.90
60293;DHT22;52402;52.670;6.750;2022-07-29T02:07:10;14.70;99.90
60293;DHT22;52402;52.670;6.750;2022-07-29T02:09:37;14.70;99.90
60293;DHT22;52402;52.670;6.750;2022-07-29T02:12:04;14.60;99.90
60293;DHT22;52402;52.670;6.750;2022-07-29T02:14:36;14.60;99.90
60293;DHT22;52402;52.670;6.750;2022-07-29T02:17:02;14.60;99.90
60293;DHT22;52402;52.670;6.750;2022-07-29T02:19:29;14.60;99.90
60293;DHT22;52402;52.670;6.750;2022-07-29T02:21:57;14.60;99.90
60293;DHT22;52402;52.670;6.750;2022-07-29T02:24:24;14.60;99.90
60293;DHT22;52402;52.670;6.750;2022-07-29T02:26:53;14.60;99.90
60293;DHT22;52402;52.670;6.750;2022-07-29T02:29:25;14.60;99.90
60293;DHT22;52402;52.670;6.750;2022-07-29T02:31:52;14.60;99.90
60293;DHT22;52402;52.670;6.750;2022-07-29T02:34:20;14.60;99.90
60293;DHT22;52402;52.670;6.750;2022-07-29T02:36:46;14.60;99.90
60293;DHT22;52402;52.670;6.750;2022-07-29T02:39:14;14.60;99.90
60293;DHT22;52402;52.670;6.750;2022-07-29T02:44:13;14.60;99.90
60293;DHT22;52402;52.670;6.750;2022-07-29T02:47:19;14.60;99.90
60293;DHT22;52402;52.670;6.750;2022-07-29T02:52:45;14.60;99.90
60293;DHT22;52402;52.670;6.750;2022-07-29T02:55:31;14.60;99.90
60293;DHT22;52402;52.670;6.750;2022-07-29T02:58:05;14.60;99.90
60293;DHT22;52402;52.670;6.750;2022-07-29T03:00:40;14.60;99.90
60293;DHT22;52402;52.670;6.750;2022-07-29T03:03:12;14.60;99.90
60293;DHT22;52402;52.670;6.750;2022-07-29T03:05:40;14.50;99.90
60293;DHT22;52402;52.670;6.750;2022-07-29T03:08:07;14.50;99.90
60293;DHT22;52402;52.670;6.750;2022-07-29T03:10:34;14.50;99.90
60293;DHT22;52402;52.670;6.750;2022-07-29T03:13:01;14.50;99.90
60293;DHT22;52402;52.670;6.750;2022-07-29T03:15:28;14.50;99.90
60293;DHT22;52402;52.670;6.750;2022-07-29T03:17:53;14.50;99.90
60293;DHT22;52402;52.670;6.750;2022-07-29T03:20:21;14.50;99.90
60293;DHT22;52402;52.670;6.750;2022-07-29T03:22:47;14.50;99.90
60293;DHT22;52402;52.670;6.750;2022-07-29T03:25:15;14.40;99.90
60293;DHT22;52402;52.670;6.750;2022-07-29T03:27:41;14.40;99.90
60293;DHT22;52402;52.670;6.750;2022-07-29T03:30:08;14.40;99.90
60293;DHT22;52402;52.670;6.750;2022-07-29T03:32:34;14.40;99.90
60293;DHT22;52402;52.670;6.750;2022-07-29T03:35:00;14.40;99.90
60293;DHT22;52402;52.670;6.750;2022-07-29T03:37:26;14.40;99.90
60293;DHT22;52402;52.670;6.750;2022-07-29T03:39:55;14.40;99.90
60293;DHT22;52402;52.670;6.750;2022-07-29T03:42:27;14.40;99.90
60293;DHT22;52402;52.670;6.750;2022-07-29T03:44:54;14.40;99.90
60293;DHT22;52402;52.670;6.750;2022-07-29T03:47:24;14.30;99.90
60293;DHT22;52402;52.670;6.750;2022-07-29T03:49:59;14.40;99.90
60293;DHT22;52402;52.670;6.750;2022-07-29T03:52:25;14.30;99.90
60293;DHT22;52402;52.670;6.750;2022-07-29T03:54:51;14.30;99.90
60293;DHT22;52402;52.670;6.750;2022-07-29T03:57:18;14.30;99.90
60293;DHT22;52402;52.670;6.750;2022-07-29T03:59:45;14.30;99.90
60293;DHT22;52402;52.670;6.750;2022-07-29T04:02:11;14.30;99.90
60293;DHT22;52402;52.670;6.750;2022-07-29T04:04:37;14.30;99.90
60293;DHT22;52402;52.670;6.750;2022-07-29T04:07:03;14.30;99.90
60293;DHT22;52402;52.670;6.750;2022-07-29T04:09:29;14.30;99.90
60293;DHT22;52402;52.670;6.750;2022-07-29T04:11:55;14.30;99.90
60293;DHT22;52402;52.670;6.750;2022-07-29T04:14:21;14.30;99.90
60293;DHT22;52402;52.670;6.750;2022-07-29T04:16:47;14.20;99.90
60293;DHT22;52402;52.670;6.750;2022-07-29T04:19:15;14.30;99.90
60293;DHT22;52402;52.670;6.750;2022-07-29T04:21:43;14.30;99.90
60293;DHT22;52402;52.670;6.750;2022-07-29T04:24:10;14.30;99.90
60293;DHT22;52402;52.670;6.750;2022-07-29T04:26:36;14.30;99.90
60293;DHT22;52402;52.670;6.750;2022-07-29T04:29:01;14.40;99.90
60293;DHT22;52402;52.670;6.750;2022-07-29T04:31:27;14.30;99.90
60293;DHT22;52402;52.670;6.750;2022-07-29T04:33:53;14.30;99.90
60293;DHT22;52402;52.670;6.750;2022-07-29T04:36:18;14.40;99.90
60293;DHT22;52402;52.670;6.750;2022-07-29T04:38:44;14.40;99.90
60293;DHT22;52402;52.670;6.750;2022-07-29T04:41:09;14.40;99.90
60293;DHT22;52402;52.670;6.750;2022-07-29T04:43:35;14.40;99.90
60293;DHT22;52402;52.670;6.750;2022-07-29T04:46:02;14.40;99.90
60293;DHT22;52402;52.670;6.750;2022-07-29T04:48:28;14.40;99.90
60293;DHT22;52402;52.670;6.750;2022-07-29T04:50:54;14.50;99.90
60293;DHT22;52402;52.670;6.750;2022-07-29T04:53:20;14.40;99.90
60293;DHT22;52402;52.670;6.750;2022-07-29T04:55:45;14.50;99.90
60293;DHT22;52402;52.670;6.750;2022-07-29T04:58:11;14.50;99.90
60293;DHT22;52402;52.670;6.750;2022-07-29T05:00:37;14.60;99.90
60293;DHT22;52402;52.670;6.750;2022-07-29T05:03:03;14.60;99.90
60293;DHT22;52402;52.670;6.750;2022-07-29T05:05:29;14.60;99.90
60293;DHT22;52402;52.670;6.750;2022-07-29T05:07:55;14.60;99.90
60293;DHT22;52402;52.670;6.750;2022-07-29T05:10:20;14.60;99.90
60293;DHT22;52402;52.670;6.750;2022-07-29T05:12:46;14.70;99.90
60293;DHT22;52402;52.670;6.750;2022-07-29T05:15:12;14.70;99.90
60293;DHT22;52402;52.670;6.750;2022-07-29T05:17:38;14.80;99.90
60293;DHT22;52402;52.670;6.750;2022-07-29T05:20:05;14.80;99.90
60293;DHT22;52402;52.670;6.750;2022-07-29T05:22:30;14.80;99.90
60293;DHT22;52402;52.670;6.750;2022-07-29T05:24:56;14.80;99.90
60293;DHT22;52402;52.670;6.750;2022-07-29T05:27:22;14.80;99.90
60293;DHT22;52402;52.670;6.750;2022-07-29T05:29:47;14.90;99.90
60293;DHT22;52402;52.670;6.750;2022-07-29T05:32:13;14.90;99.90
60293;DHT22;52402;52.670;6.750;2022-07-29T05:34:39;15.00;99.90
60293;DHT22;52402;52.670;6.750;2022-07-29T05:37:04;15.00;99.90
60293;DHT22;52402;52.670;6.750;2022-07-29T05:39:30;15.00;99.90
60293;DHT22;52402;52.670;6.750;2022-07-29T05:41:56;15.00;99.90
60293;DHT22;52402;52.670;6.750;2022-07-29T05:44:21;15.00;99.90
60293;DHT22;52402;52.670;6.750;2022-07-29T05:46:55;15.10;99.90
60293;DHT22;52402;52.670;6.750;2022-07-29T05:49:20;15.10;99.90
60293;DHT22;52402;52.670;6.750;2022-07-29T05:51:46;15.20;99.90
60293;DHT22;52402;52.670;6.750;2022-07-29T05:54:14;15.30;99.90
60293;DHT22;52402;52.670;6.750;2022-07-29T05:56:39;15.30;99.90
60293;DHT22;52402;52.670;6.750;2022-07-29T05:59:10;15.40;99.90
60293;DHT22;52402;52.670;6.750;2022-07-29T06:01:38;15.60;99.90
60293;DHT22;52402;52.670;6.750;2022-07-29T06:04:06;15.70;99.90
60293;DHT22;52402;52.670;6.750;2022-07-29T06:06:33;15.80;99.90
60293;DHT22;52402;52.670;6.750;2022-07-29T06:08:59;15.90;99.90
60293;DHT22;52402;52.670;6.750;2022-07-29T06:11:25;16.00;99.90
60293;DHT22;52402;52.670;6.750;2022-07-29T06:13:51;16.10;99.90
60293;DHT22;52402;52.670;6.750;2022-07-29T06:16:16;16.20;99.90
60293;DHT22;52402;52.670;6.750;2022-07-29T06:18:42;16.20;99.90
60293;DHT22;52402;52.670;6.750;2022-07-29T06:21:09;16.30;99.90
60293;DHT22;52402;52.670;6.750;2022-07-29T06:23:38;16.40;99.90
60293;DHT22;52402;52.670;6.750;2022-07-29T06:26:05;16.40;99.90
60293;DHT22;52402;52.670;6.750;2022-07-29T06:28:31;16.50;99.90
60293;DHT22;52402;52.670;6.750;2022-07-29T06:30:56;16.60;99.90
60293;DHT22;52402;52.670;6.750;2022-07-29T06:33:22;16.70;99.90
60293;DHT22;52402;52.670;6.750;2022-07-29T06:35:48;16.80;99.90
60293;DHT22;52402;52.670;6.750;2022-07-29T06:38:14;16.80;99.90
60293;DHT22;52402;52.670;6.750;2022-07-29T06:40:44;16.70;99.90
60293;DHT22;52402;52.670;6.750;2022-07-29T06:43:26;16.70;99.90
60293;DHT22;52402;52.670;6.750;2022-07-29T06:45:52;16.70;99.90
60293;DHT22;52402;52.670;6.750;2022-07-29T06:48:17;16.80;99.90
60293;DHT22;52402;52.670;6.750;2022-07-29T06:50:43;16.90;99.90
60293;DHT22;52402;52.670;6.750;2022-07-29T06:53:09;16.90;99.90
60293;DHT22;52402;52.670;6.750;2022-07-29T06:55:34;16.90;99.90
60293;DHT22;52402;52.670;6.750;2022-07-29T06:58:02;17.00;99.90
60293;DHT22;52402;52.670;6.750;2022-07-29T07:00:27;17.00;99.90
60293;DHT22;52402;52.670;6.750;2022-07-29T07:02:53;16.90;99.90
60293;DHT22;52402;52.670;6.750;2022-07-29T07:05:19;17.00;99.90
60293;DHT22;52402;52.670;6.750;2022-07-29T07:07:44;17.10;99.90
60293;DHT22;52402;52.670;6.750;2022-07-29T07:10:10;17.20;99.90
60293;DHT22;52402;52.670;6.750;2022-07-29T07:12:35;17.20;99.90
60293;DHT22;52402;52.670;6.750;2022-07-29T07:15:01;17.40;99.90
60293;DHT22;52402;52.670;6.750;2022-07-29T07:17:27;17.50;99.90
60293;DHT22;52402;52.670;6.750;2022-07-29T07:19:52;17.60;99.90
60293;DHT22;52402;52.670;6.750;2022-07-29T07:22:18;17.80;99.90
60293;DHT22;52402;52.670;6.750;2022-07-29T07:24:43;17.80;99.90
60293;DHT22;52402;52.670;6.750;2022-07-29T07:27:09;18.00;99.90
60293;DHT22;52402;52.670;6.750;2022-07-29T07:29:35;18.10;99.90
60293;DHT22;52402;52.670;6.750;2022-07-29T07:32:00;18.10;99.90
60293;DHT22;52402;52.670;6.750;2022-07-29T07:34:26;18.20;99.90
60293;DHT22;52402;52.670;6.750;2022-07-29T07:36:51;18.20;99.90
60293;DHT22;52402;52.670;6.750;2022-07-29T07:39:17;18.20;99.90
60293;DHT22;52402;52.670;6.750;2022-07-29T07:41:42;18.30;99.90
60293;DHT22;52402;52.670;6.750;2022-07-29T07:44:08;18.20;99.90
60293;DHT22;52402;52.670;6.750;2022-07-29T07:46:34;18.20;99.90
60293;DHT22;52402;52.670;6.750;2022-07-29T07:48:59;18.20;99.90
60293;DHT22;52402;52.670;6.750;2022-07-29T07:51:25;18.10;99.90
60293;DHT22;52402;52.670;6.750;2022-07-29T07:53:50;18.10;99.90
60293;DHT22;52402;52.670;6.750;2022-07-29T07:56:16;18.10;99.90
60293;DHT22;52402;52.670;6.750;2022-07-29T07:58:42;18.00;99.90
60293;DHT22;52402;52.670;6.750;2022-07-29T08:01:08;18.00;99.90
60293;DHT22;52402;52.670;6.750;2022-07-29T08:03:34;18.00;99.90
60293;DHT22;52402;52.670;6.750;2022-07-29T08:06:01;18.00;99.90
60293;DHT22;52402;52.670;6.750;2022-07-29T08:08:26;18.10;99.90
60293;DHT22;52402;52.670;6.750;2022-07-29T08:10:52;18.20;99.90
60293;DHT22;52402;52.670;6.750;2022-07-29T08:13:19;18.30;99.90
60293;DHT22;52402;52.670;6.750;2022-07-29T08:15:45;18.30;99.90
60293;DHT22;52402;52.670;6.750;2022-07-29T08:18:12;18.50;99.90
60293;DHT22;52402;52.670;6.750;2022-07-29T08:20:38;18.50;99.90
60293;DHT22;52402;52.670;6.750;2022-07-29T08:23:05;18.60;99.90
60293;DHT22;52402;52.670;6.750;2022-07-29T08:25:38;18.70;99.90
60293;DHT22;52402;52.670;6.750;2022-07-29T08:28:04;18.70;99.90
60293;DHT22;52402;52.670;6.750;2022-07-29T08:30:30;18.70;99.90
60293;DHT22;52402;52.670;6.750;2022-07-29T08:32:58;18.80;99.90
60293;DHT22;52402;52.670;6.750;2022-07-29T08:35:24;18.90;99.90
60293;DHT22;52402;52.670;6.750;2022-07-29T08:37:50;18.90;99.90
60293;DHT22;52402;52.670;6.750;2022-07-29T08:40:15;18.80;99.90
60293;DHT22;52402;52.670;6.750;2022-07-29T08:42:41;18.80;99.90
60293;DHT22;52402;52.670;6.750;2022-07-29T08:45:07;18.70;99.90
60293;DHT22;52402;52.670;6.750;2022-07-29T08:47:33;18.60;99.90
60293;DHT22;52402;52.670;6.750;2022-07-29T08:50:02;18.60;99.90
60293;DHT22;52402;52.670;6.750;2022-07-29T08:52:29;18.60;99.90
60293;DHT22;52402;52.670;6.750;2022-07-29T08:54:56;18.50;99.90
60293;DHT22;52402;52.670;6.750;2022-07-29T08:57:23;18.40;99.90
60293;DHT22;52402;52.670;6.750;2022-07-29T08:59:50;18.40;99.90
60293;DHT22;52402;52.670;6.750;2022-07-29T09:02:22;18.30;99.90
60293;DHT22;52402;52.670;6.750;2022-07-29T09:04:48;18.40;99.90
60293;DHT22;52402;52.670;6.750;2022-07-29T09:07:18;18.40;99.90
60293;DHT22;52402;52.670;6.750;2022-07-29T09:09:44;18.40;99.90
60293;DHT22;52402;52.670;6.750;2022-07-29T09:12:10;18.50;99.90
60293;DHT22;52402;52.670;6.750;2022-07-29T09:14:38;18.50;99.90
60293;DHT22;52402;52.670;6.750;2022-07-29T09:17:03;18.60;99.90
60293;DHT22;52402;52.670;6.750;2022-07-29T09:19:34;18.80;99.90
60293;DHT22;52402;52.670;6.750;2022-07-29T09:22:02;18.90;99.90
60293;DHT22;52402;52.670;6.750;2022-07-29T09:27:00;19.10;99.90
60293;DHT22;52402;52.670;6.750;2022-07-29T09:29:26;19.20;99.90
60293;DHT22;52402;52.670;6.750;2022-07-29T09:31:54;19.30;99.90
60293;DHT22;52402;52.670;6.750;2022-07-29T09:34:25;19.50;99.90
60293;DHT22;52402;52.670;6.750;2022-07-29T09:36:53;19.70;99.90
60293;DHT22;52402;52.670;6.750;2022-07-29T09:39:33;19.70;99.90
60293;DHT22;52402;52.670;6.750;2022-07-29T09:42:02;19.80;99.90
60293;DHT22;52402;52.670;6.750;2022-07-29T09:44:47;19.90;99.90
60293;DHT22;52402;52.670;6.750;2022-07-29T09:47:14;20.00;99.90
60293;DHT22;52402;52.670;6.750;2022-07-29T09:49:57;20.10;99.90
60293;DHT22;52402;52.670;6.750;2022-07-29T09:52:25;20.20;99.90
60293;DHT22;52402;52.670;6.750;2022-07-29T09:54:50;20.20;99.90
60293;DHT22;52402;52.670;6.750;2022-07-29T09:57:23;20.20;99.90
60293;DHT22;52402;52.670;6.750;2022-07-29T10:00:02;20.20;99.90
60293;DHT22;52402;52.670;6.750;2022-07-29T10:02:33;20.20;99.90
60293;DHT22;52402;52.670;6.750;2022-07-29T10:05:01;20.20;99.90
60293;DHT22;52402;52.670;6.750;2022-07-29T10:07:46;20.20;99.90
60293;DHT22;52402;52.670;6.750;2022-07-29T10:10:28;20.10;99.90
60293;DHT22;52402;52.670;6.750;2022-07-29T10:12:59;20.20;99.90
60293;DHT22;52402;52.670;6.750;2022-07-29T10:15:27;20.30;99.90
60293;DHT22;52402;52.670;6.750;2022-07-29T10:17:54;20.30;99.90
60293;DHT22;52402;52.670;6.750;2022-07-29T10:20:21;20.30;99.90
60293;DHT22;52402;52.670;6.750;2022-07-29T10:22:47;20.40;99.90
60293;DHT22;52402;52.670;6.750;2022-07-29T10:25:14;20.40;99.90
60293;DHT22;52402;52.670;6.750;2022-07-29T10:27:41;20.30;99.90
60293;DHT22;52402;52.670;6.750;2022-07-29T10:30:08;20.30;99.90
60293;DHT22;52402;52.670;6.750;2022-07-29T10:32:51;20.40;99.90
60293;DHT22;52402;52.670;6.750;2022-07-29T10:43:24;20.40;99.90
60293;DHT22;52402;52.670;6.750;2022-07-29T10:45:57;20.50;99.90
60293;DHT22;52402;52.670;6.750;2022-07-29T10:48:24;20.50;99.90
60293;DHT22;52402;52.670;6.750;2022-07-29T10:53:20;20.60;99.90
60293;DHT22;52402;52.670;6.750;2022-07-29T10:55:46;20.60;99.90
60293;DHT22;52402;52.670;6.750;2022-07-29T11:00:48;20.70;99.90
60293;DHT22;52402;52.670;6.750;2022-07-29T11:03:48;20.70;99.90
60293;DHT22;52402;52.670;6.750;2022-07-29T11:06:17;20.80;99.90
60293;DHT22;52402;52.670;6.750;2022-07-29T11:08:43;20.80;99.90
60293;DHT22;52402;52.670;6.750;2022-07-29T11:13:51;21.00;99.90
60293;DHT22;52402;52.670;6.750;2022-07-29T11:16:19;21.00;99.90
60293;DHT22;52402;52.670;6.750;2022-07-29T11:21:43;21.20;99.90
60293;DHT22;52402;52.670;6.750;2022-07-29T11:24:20;21.30;99.90
60293;DHT22;52402;52.670;6.750;2022-07-29T11:27:11;21.40;99.90
60293;DHT22;52402;52.670;6.750;2022-07-29T11:29:58;21.50;99.90
60293;DHT22;52402;52.670;6.750;2022-07-29T11:32:36;21.40;99.90
60293;DHT22;52402;52.670;6.750;2022-07-29T11:35:22;21.50;99.90
60293;DHT22;52402;52.670;6.750;2022-07-29T11:38:26;21.40;99.90
60293;DHT22;52402;52.670;6.750;2022-07-29T11:44:01;21.40;99.90
60293;DHT22;52402;52.670;6.750;2022-07-29T11:46:49;21.30;99.90
60293;DHT22;52402;52.670;6.750;2022-07-29T11:49:23;21.30;99.90
60293;DHT22;52402;52.670;6.750;2022-07-29T11:51:53;21.30;99.90
60293;DHT22;52402;52.670;6.750;2022-07-29T11:54:34;21.30;99.90
60293;DHT22;52402;52.670;6.750;2022-07-29T11:57:00;21.30;99.90
60293;DHT22;52402;52.670;6.750;2022-07-29T11:59:26;21.30;99.90
60293;DHT22;52402;52.670;6.750;2022-07-29T12:01:57;21.40;99.90
60293;DHT22;52402;52.670;6.750;2022-07-29T12:04:23;21.40;99.90
60293;DHT22;52402;52.670;6.750;2022-07-29T12:06:53;21.50;99.90
60293;DHT22;52402;52.670;6.750;2022-07-29T12:09:20;21.60;99.90
60293;DHT22;52402;52.670;6.750;2022-07-29T12:11:46;21.80;99.90
60293;DHT22;52402;52.670;6.750;2022-07-29T12:14:29;21.90;99.90
60293;DHT22;52402;52.670;6.750;2022-07-29T12:16:56;22.00;99.90
60293;DHT22;52402;52.670;6.750;2022-07-29T12:19:22;22.20;99.90
60293;DHT22;52402;52.670;6.750;2022-07-29T12:21:52;22.40;99.90
60293;DHT22;52402;52.670;6.750;2022-07-29T12:24:18;22.60;99.90
60293;DHT22;52402;52.670;6.750;2022-07-29T12:26:52;22.60;99.90
60293;DHT22;52402;52.670;6.750;2022-07-29T12:29:19;22.70;99.90
60293;DHT22;52402;52.670;6.750;2022-07-29T12:31:46;22.80;99.90
60293;DHT22;52402;52.670;6.750;2022-07-29T12:34:13;22.90;99.90
60293;DHT22;52402;52.670;6.750;2022-07-29T12:36:45;23.00;99.90
60293;DHT22;52402;52.670;6.750;2022-07-29T12:39:11;23.10;99.90
60293;DHT22;52402;52.670;6.750;2022-07-29T12:41:37;23.00;99.90
60293;DHT22;52402;52.670;6.750;2022-07-29T12:44:04;22.90;99.90
60293;DHT22;52402;52.670;6.750;2022-07-29T12:46:30;23.00;99.90
60293;DHT22;52402;52.670;6.750;2022-07-29T12:48:55;23.10;99.90
60293;DHT22;52402;52.670;6.750;2022-07-29T12:51:36;23.00;99.90
60293;DHT22;52402;52.670;6.750;2022-07-29T12:54:13;23.00;99.90
60293;DHT22;52402;52.670;6.750;2022-07-29T12:56:41;23.20;99.90
60293;DHT22;52402;52.670;6.750;2022-07-29T13:01:45;23.60;99.90
60293;DHT22;52402;52.670;6.750;2022-07-29T13:04:30;23.60;98.90
60293;DHT22;52402;52.670;6.750;2022-07-29T13:07:03;23.60;98.50
60293;DHT22;52402;52.670;6.750;2022-07-29T13:10:10;23.60;99.20
60293;DHT22;52402;52.670;6.750;2022-07-29T13:12:36;23.70;98.70
60293;DHT22;52402;52.670;6.750;2022-07-29T13:15:13;23.80;98.80
60293;DHT22;52402;52.670;6.750;2022-07-29T13:17:42;23.90;99.10
60293;DHT22;52402;52.670;6.750;2022-07-29T13:20:12;23.90;98.60
60293;DHT22;52402;52.670;6.750;2022-07-29T13:22:39;24.00;97.90
60293;DHT22;52402;52.670;6.750;2022-07-29T13:25:05;24.10;97.90
60293;DHT22;52402;52.670;6.750;2022-07-29T13:27:37;24.40;97.60
60293;DHT22;52402;52.670;6.750;2022-07-29T13:30:08;24.90;97.40
60293;DHT22;52402;52.670;6.750;2022-07-29T13:32:34;25.20;96.70
60293;DHT22;52402;52.670;6.750;2022-07-29T13:35:04;25.20;96.20
60293;DHT22;52402;52.670;6.750;2022-07-29T13:37:30;25.20;96.80
60293;DHT22;52402;52.670;6.750;2022-07-29T13:39:58;25.20;96.50
60293;DHT22;52402;52.670;6.750;2022-07-29T13:42:25;25.30;96.80
60293;DHT22;52402;52.670;6.750;2022-07-29T13:44:51;25.40;96.30
60293;DHT22;52402;52.670;6.750;2022-07-29T13:47:18;25.70;95.90
60293;DHT22;52402;52.670;6.750;2022-07-29T13:49:44;26.20;95.80
60293;DHT22;52402;52.670;6.750;2022-07-29T13:52:09;26.50;95.00
60293;DHT22;52402;52.670;6.750;2022-07-29T13:54:35;26.20;94.50
60293;DHT22;52402;52.670;6.750;2022-07-29T13:57:03;25.60;94.20
60293;DHT22;52402;52.670;6.750;2022-07-29T13:59:29;25.60;94.80
60293;DHT22;52402;52.670;6.750;2022-07-29T14:01:54;25.10;94.50
60293;DHT22;52402;52.670;6.750;2022-07-29T14:04:20;25.00;95.20
60293;DHT22;52402;52.670;6.750;2022-07-29T14:06:46;24.80;95.50
60293;DHT22;52402;52.670;6.750;2022-07-29T14:09:12;24.60;95.30
60293;DHT22;52402;52.670;6.750;2022-07-29T14:11:38;24.60;95.70
60293;DHT22;52402;52.670;6.750;2022-07-29T14:14:04;24.50;95.50
60293;DHT22;52402;52.670;6.750;2022-07-29T14:16:29;24.50;96.40
60293;DHT22;52402;52.670;6.750;2022-07-29T14:18:55;24.80;96.30
60293;DHT22;52402;52.670;6.750;2022-07-29T14:21:20;25.10;96.30
60293;DHT22;52402;52.670;6.750;2022-07-29T14:23:46;25.30;95.50
60293;DHT22;52402;52.670;6.750;2022-07-29T14:26:13;25.50;95.30
60293;DHT22;52402;52.670;6.750;2022-07-29T14:28:38;25.80;94.90
60293;DHT22;52402;52.670;6.750;2022-07-29T14:31:04;26.00;94.40
60293;DHT22;52402;52.670;6.750;2022-07-29T14:33:29;26.20;94.30
60293;DHT22;52402;52.670;6.750;2022-07-29T14:35:55;26.50;94.10
60293;DHT22;52402;52.670;6.750;2022-07-29T14:38:21;27.00;94.10
60293;DHT22;52402;52.670;6.750;2022-07-29T14:40:46;27.50;93.40
60293;DHT22;52402;52.670;6.750;2022-07-29T14:43:13;27.80;93.00
60293;DHT22;52402;52.670;6.750;2022-07-29T14:45:39;27.80;92.90
60293;DHT22;52402;52.670;6.750;2022-07-29T14:48:05;27.50;92.50
60293;DHT22;52402;52.670;6.750;2022-07-29T14:50:31;27.20;91.80
60293;DHT22;52402;52.670;6.750;2022-07-29T14:52:56;27.10;92.10
60293;DHT22;52402;52.670;6.750;2022-07-29T14:55:22;26.90;92.60
60293;DHT22;52402;52.670;6.750;2022-07-29T14:57:48;26.90;93.20
60293;DHT22;52402;52.670;6.750;2022-07-29T15:00:16;26.80;93.20
60293;DHT22;52402;52.670;6.750;2022-07-29T15:02:41;26.60;92.30
60293;DHT22;52402;52.670;6.750;2022-07-29T15:05:08;26.80;92.60
60293;DHT22;52402;52.670;6.750;2022-07-29T15:07:33;27.00;92.60
60293;DHT22;52402;52.670;6.750;2022-07-29T15:09:59;27.10;92.40
60293;DHT22;52402;52.670;6.750;2022-07-29T15:12:24;27.10;92.30
60293;DHT22;52402;52.670;6.750;2022-07-29T15:14:52;27.20;91.90
60293;DHT22;52402;52.670;6.750;2022-07-29T15:17:18;27.40;91.80
60293;DHT22;52402;52.670;6.750;2022-07-29T15:19:45;27.80;92.10
60293;DHT22;52402;52.670;6.750;2022-07-29T15:22:11;28.10;91.70
60293;DHT22;52402;52.670;6.750;2022-07-29T15:24:36;28.40;91.10
60293;DHT22;52402;52.670;6.750;2022-07-29T15:27:02;28.30;90.70
60293;DHT22;52402;52.670;6.750;2022-07-29T15:29:28;28.50;90.60
60293;DHT22;52402;52.670;6.750;2022-07-29T15:31:53;28.50;90.60
60293;DHT22;52402;52.670;6.750;2022-07-29T15:34:19;28.70;90.20
60293;DHT22;52402;52.670;6.750;2022-07-29T15:36:46;28.60;89.70
60293;DHT22;52402;52.670;6.750;2022-07-29T15:39:21;28.80;90.00
60293;DHT22;52402;52.670;6.750;2022-07-29T15:41:47;28.50;89.60
60293;DHT22;52402;52.670;6.750;2022-07-29T15:44:12;28.30;89.80
60293;DHT22;52402;52.670;6.750;2022-07-29T15:46:38;28.20;90.10
60293;DHT22;52402;52.670;6.750;2022-07-29T15:49:22;28.10;90.40
60293;DHT22;52402;52.670;6.750;2022-07-29T15:51:47;28.10;89.70
60293;DHT22;52402;52.670;6.750;2022-07-29T15:54:13;28.10;90.20
60293;DHT22;52402;52.670;6.750;2022-07-29T15:56:39;28.10;90.10
60293;DHT22;52402;52.670;6.750;2022-07-29T15:59:04;28.30;90.20
60293;DHT22;52402;52.670;6.750;2022-07-29T16:01:30;28.40;90.00
60293;DHT22;52402;52.670;6.750;2022-07-29T16:03:57;28.60;89.60
60293;DHT22;52402;52.670;6.750;2022-07-29T16:06:22;28.80;89.60
60293;DHT22;52402;52.670;6.750;2022-07-29T16:08:48;28.90;89.70
60293;DHT22;52402;52.670;6.750;2022-07-29T16:11:14;28.80;88.50
60293;DHT22;52402;52.670;6.750;2022-07-29T16:13:39;28.80;87.90
60293;DHT22;52402;52.670;6.750;2022-07-29T16:16:05;28.70;87.20
60293;DHT22;52402;52.670;6.750;2022-07-29T16:18:30;28.60;87.30
60293;DHT22;52402;52.670;6.750;2022-07-29T16:20:56;28.50;87.20